• Join FlightAware (Why Join?)
  • Login
  • US Flag GB Flag 
02:15 EDT


 

Airport Tracker/Info


-or-


 

Live Flight TrackerFlight Track Log ✈ SKW6440 ✈ 23-Apr-2013 ✈ KLAX - KCOS

Flight Track Log - Related Links

Times and Time Zones

All times are in EDT time to prevent confusion due to time zone crossing. See the SKW6440 flight status page for this flight to view local times or setup timezone preferences in your user account.

Time Position Orientation Groundspeed Altitude Reporting Facility
EDT Latitude Longitude Course Direction KTS MPH feet Rate Location/Type
19:26 33.9311 -118.4450 55° Northeast 170 196 1,400  Level Los Angeles Center
19:27 33.9119 -118.5272 254° West 236 272 3,800 2,400 Climbing Los Angeles Center
19:28 34.1326 -118.0680 59° Northeast  Level FlightAware Approximate
19:28 33.8872 -118.6067 249° West 254 292 6,400  Level Los Angeles Center
19:29 34.2020 -117.9294 59° Northeast  Level FlightAware Approximate
19:29 33.8267 -118.6419 206° Southwest 261 300 8,900  Level Los Angeles Center
19:30 34.2761 -117.8072 40° Northeast  Level FlightAware Approximate
19:30 33.8264 -118.5614 90° East 289 333 10,400  Level Los Angeles Center
19:31 34.3464 -117.6729 55° Northeast  Level FlightAware Approximate
19:31 33.8906 -118.4875 44° Northeast 311 358 12,800  Level Los Angeles Center
19:32 33.9531 -118.4028 48° Northeast 334 384 14,300 1,680 Climbing Los Angeles Center
19:33 34.0092 -118.3011 56° Northeast 358 412 16,300 1,800 Climbing Los Angeles Center
19:34 34.0678 -118.1975 56° Northeast 369 425 18,100 1,380 Climbing Los Angeles Center
19:35 34.1283 -118.0883 56° Northeast 387 445 19,200 1,080 Climbing Los Angeles Center
19:36 34.2083 -117.9483 55° Northeast 419 482 20,400 1,200 Climbing Los Angeles Center
19:37 34.2778 -117.8239 56° Northeast 441 507 21,700 1,320 Climbing Los Angeles Center
19:38 34.3469 -117.6997 56° Northeast 446 513 23,200 1,500 Climbing Los Angeles Center
19:39 34.4211 -117.5706 55° Northeast 443 510 24,800 1,500 Climbing Los Angeles Center
19:40 34.5008 -117.4597 49° Northeast 441 507 26,300 1,440 Climbing Los Angeles Center
19:41 34.5783 -117.3481 50° Northeast 437 503 27,800 1,440 Climbing Los Angeles Center
19:42 34.6567 -117.2372 49° Northeast 436 502 29,300 1,440 Climbing Los Angeles Center
19:43 34.7336 -117.1283 49° Northeast 429 494 30,800 1,560 Climbing Los Angeles Center
19:44 34.8242 -116.9978 50° Northeast 424 488 32,600 1,440 Climbing Los Angeles Center
19:45 34.8981 -116.8925 49° Northeast 413 475 33,800 900 Climbing Los Angeles Center
19:46 34.9714 -116.7856 50° Northeast 413 475 34,500 660 Climbing Los Angeles Center
19:47 35.0483 -116.6769 49° Northeast 421 484 35,200 660 Climbing Los Angeles Center
19:48 35.1247 -116.5669 50° Northeast 426 490 35,900 600 Climbing Los Angeles Center
19:50 35.2164 -116.4344 50° Northeast 427 491 36,600 540 Climbing Los Angeles Center
19:51 35.3081 -116.2994 50° Northeast 430 495 37,200 480 Climbing Los Angeles Center
19:52 35.3850 -116.1875 50° Northeast 432 497 37,700 480 Climbing Los Angeles Center
19:53 35.4608 -116.0744 51° Northeast 431 496 38,200 480 Climbing Los Angeles Center
19:54 35.5389 -115.9628 49° Northeast 432 497 38,700 300 Climbing Los Angeles Center
19:55 35.6192 -115.8447 50° Northeast 429 494 38,900 120 Climbing Los Angeles Center
19:56 35.7106 -115.7094 50° Northeast 429 494 39,000  Climbing Los Angeles Center
19:57 35.7892 -115.5936 50° Northeast 440 506 39,000  Level Los Angeles Center
19:58 35.8683 -115.4756 50° Northeast 447 514 39,000  Level Los Angeles Center
19:59 35.9481 -115.3561 50° Northeast 454 522 39,000  Level Los Angeles Center
20:00 36.0283 -115.2372 50° Northeast 454 522 39,000  Level Los Angeles Center
20:01 36.0969 -115.0622 64° Northeast 481 554 39,000  Level Los Angeles Center
20:02 36.1244 -114.8961 78° East 493 567 39,000  Level Los Angeles Center
20:03 36.1539 -114.7303 78° East 495 570 39,000  Level Los Angeles Center
20:04 36.1836 -114.5628 78° East 499 574 39,000  Level Los Angeles Center
20:05 36.2119 -114.3958 78° East 497 572 39,000  Level Los Angeles Center
20:06 36.2397 -114.2267 78° East 502 578 39,000  Level Los Angeles Center
20:07 36.2747 -114.0244 78° East 502 578 39,000  Level Los Angeles Center
20:08 36.3031 -113.8533 78° East 507 583 39,000  Level Los Angeles Center
20:09 36.3311 -113.6828 78° East 506 582 39,000  Level Los Angeles Center
20:10 36.3597 -113.5117 78° East 507 583 39,000  Level Los Angeles Center
20:11 36.3875 -113.3406 79° East 507 583 39,000  Level Los Angeles Center
20:12 36.4186 -113.1519 78° East 509 586 39,000  Level Los Angeles Center
20:13 36.4450 -112.9800 79° East 509 586 39,000  Level Los Angeles Center
20:14 36.4728 -112.8072 79° East 512 589 39,000  Level Los Angeles Center
20:16 36.5033 -112.6011 79° East 510 587 39,000  Level Los Angeles Center
20:17 36.5306 -112.4278 79° East 512 589 39,000  Level Los Angeles Center
20:18 36.5564 -112.2547 79° East 512 589 39,000  Level Los Angeles Center
20:19 36.5828 -112.0817 79° East 512 589 39,000  Level Los Angeles Center
20:20 36.6103 -111.9078 79° East 513 590 39,000  Level Los Angeles Center
20:20 36.6308 -111.7681 80° East 515 593 39,000  Level Denver Center
20:21 36.6542 -111.5953 80° East 512 589 39,000  Level Denver Center
20:22 36.6822 -111.4181 79° East 519 597 39,000  Level Denver Center
20:23 36.7267 -111.2169 75° East 505 581 39,000  Level Denver Center
20:25 36.7742 -111.0514 70° East 507 583 39,000  Level Denver Center
20:26 36.8172 -110.8875 72° East 501 577 39,000  Level Denver Center
20:27 36.8619 -110.7228 71° East 503 579 39,000  Level Denver Center
20:28 36.9069 -110.5561 71° East 509 586 39,000  Level Denver Center
20:29 36.9503 -110.3883 72° East 510 587 39,000  Level Denver Center
20:30 37.0042 -110.1875 71° East 509 586 39,000  Level Denver Center
20:31 37.0506 -110.0125 72° East 512 589 39,000  Level Denver Center
20:32 37.0922 -109.8497 72° East 513 590 39,000  Level Denver Center
20:33 37.1361 -109.6828 72° East 519 597 39,000  Level Denver Center
20:34 37.1853 -109.4922 72° East 516 594 39,000  Level Denver Center
20:35 37.2267 -109.3289 72° East 513 590 39,000  Level Denver Center
20:36 37.2758 -109.1344 72° East 520 598 39,000  Level Denver Center
20:37 37.3181 -108.9686 72° East 520 598 39,000  Level Denver Center
20:38 37.3672 -108.7733 72° East 522 601 39,000  Level Denver Center
20:39 37.4083 -108.6047 73° East 525 604 39,000  Level Denver Center
20:40 37.4497 -108.4361 73° East 526 605 39,000  Level Denver Center
20:41 37.4983 -108.2397 73° East 527 606 39,000  Level Denver Center
20:42 37.5397 -108.0694 73° East 528 608 39,000  Level Denver Center
20:43 37.5869 -107.8697 73° East 532 612 39,000  Level Denver Center
20:44 37.6283 -107.7000 73° East 528 608 39,000 -120 Level Denver Center
20:45 37.6767 -107.4992 73° East 534 615 38,800 -600 Descending Denver Center
20:46 37.7156 -107.3292 74° East 528 608 37,800 -960 Descending Denver Center
20:47 37.7553 -107.1603 73° East 525 604 36,900 -1,140 Descending Denver Center
20:48 37.7994 -106.9656 74° East 518 596 35,500 -1,800 Descending Denver Center
20:49 37.8436 -106.7806 73° East 517 595 33,300 -2,040 Descending Denver Center
20:50 37.8786 -106.6211 74° East 494 568 31,400 -1,800 Descending Denver Center
20:51 37.9100 -106.4847 74° East 483 556 29,700 -2,100 Descending Denver Center
20:52 37.9567 -106.2794 74° East 475 547 27,100 -1,980 Descending Denver Center
20:53 37.9897 -106.1286 74° East 468 539 25,700 -1,440 Descending Denver Center
20:54 38.0242 -105.9781 74° East 464 534 24,200 -1,380 Descending Denver Center
20:56 38.0611 -105.8078 75° East 452 520 22,600 -1,620 Descending Denver Center
20:57 38.1042 -105.6153 74° East 444 511 20,600 -1,620 Descending Denver Center
20:58 38.1289 -105.4986 75° East 436 502 19,400 -1,200 Descending Denver Center
20:59 38.1661 -105.3331 74° East 435 501 18,200 -1,080 Descending Denver Center
21:00 38.2003 -105.1711 75° East 430 495 17,300 -960 Descending Denver Center
21:01 38.2286 -105.0339 75° East 423 487 16,300 -1,080 Descending Denver Center
21:02 38.2617 -104.8764 75° East 415 478 15,200 -1,080 Descending Denver Center
21:03 38.2894 -104.7464 75° East 402 463 14,200 -600 Descending Denver Center
21:04 38.3494 -104.6539 50° Northeast 390 449 14,000 -120 Descending Denver Center
21:05 38.4600 -104.6419 North 360 414 14,000  Level Denver Center
21:06 38.5556 -104.6322 North 358 412 14,000  Level Denver Center
21:07 38.6700 -104.6094 North 367 422 14,000 -780 Level Denver Center
21:08 38.7611 -104.5897 10° North 350 403 12,500 -1,440 Descending Denver Center
21:09 38.8403 -104.5744 North 309 356 11,100 -1,560 Descending Denver Center
21:10 38.9261 -104.5753 360° North 276 318 9,400 -1,080 Descending Denver Center
21:11 39.0003 -104.5781 358° North 265 305 9,000 -240 Descending Denver Center
21:12 39.0606 -104.6122 336° Northwest 252 290 9,000  Level Denver Center
21:13 39.0331 -104.6753 241° Southwest 216 249 9,000  Level Denver Center
21:14 38.9811 -104.6864 189° South 195 224 9,000 -60 Level Denver Center
21:15 38.9414 -104.6831 176° South 178 205 8,900 -120 Descending Denver Center